< < Back
Terminal Aerodrome Forecast


Current Version              Previous Versions:   1  2  3  4  5  6  7  8  9  

Terminal Aerodrome Forecast

394
FTUS42 KFFC 200000 CCA
TAFAHN
TAF COR
KAHN 200005Z 2000/2024 25008KT P6SM SCT080
     FM200800 VRB03KT 3SM BR SCT015
     FM201400 29006KT P6SM SCT040
     FM201700 28010KT P6SM SCT045 PROB30 2018/2022 4SM -TSRA
      BKN030CB=



Latest METAR

650
SAUS70 KWBC 201054
MTRAHN
METAR KAHN 201051Z AUTO VRB03KT 8SM CLR 21/20 A2999 RMK AO2 SLP148
T02110200


USA.gov is the U.S. government's official web portal to all federal, state and local government web resources and services.